sensor_id;sensor_type;location;lat;lon;timestamp;P1;durP1;ratioP1;P2;durP2;ratioP2
16862;SDS011;52193;48.216;-1.698;2023-10-09T00:01:41;6.93;;;6.13;;
16862;SDS011;52193;48.216;-1.698;2023-10-09T00:04:09;6.40;;;5.90;;
16862;SDS011;52193;48.216;-1.698;2023-10-09T00:06:37;6.85;;;6.35;;
16862;SDS011;52193;48.216;-1.698;2023-10-09T00:09:04;6.47;;;5.97;;
16862;SDS011;52193;48.216;-1.698;2023-10-09T00:11:56;6.32;;;5.93;;
16862;SDS011;52193;48.216;-1.698;2023-10-09T00:14:25;6.20;;;5.80;;
16862;SDS011;52193;48.216;-1.698;2023-10-09T00:16:55;6.40;;;5.90;;
16862;SDS011;52193;48.216;-1.698;2023-10-09T00:19:30;6.63;;;6.13;;
16862;SDS011;52193;48.216;-1.698;2023-10-09T00:21:58;6.55;;;6.10;;
16862;SDS011;52193;48.216;-1.698;2023-10-09T00:24:31;5.78;;;5.38;;
16862;SDS011;52193;48.216;-1.698;2023-10-09T00:27:00;6.20;;;5.80;;
16862;SDS011;52193;48.216;-1.698;2023-10-09T00:29:37;6.00;;;5.60;;
16862;SDS011;52193;48.216;-1.698;2023-10-09T00:32:10;6.78;;;6.28;;
16862;SDS011;52193;48.216;-1.698;2023-10-09T00:34:48;6.47;;;5.97;;
16862;SDS011;52193;48.216;-1.698;2023-10-09T00:37:16;6.20;;;5.70;;
16862;SDS011;52193;48.216;-1.698;2023-10-09T00:39:48;6.70;;;6.20;;
16862;SDS011;52193;48.216;-1.698;2023-10-09T00:42:22;6.90;;;6.40;;
16862;SDS011;52193;48.216;-1.698;2023-10-09T00:44:57;6.93;;;6.43;;
16862;SDS011;52193;48.216;-1.698;2023-10-09T00:47:28;6.43;;;6.10;;
16862;SDS011;52193;48.216;-1.698;2023-10-09T00:50:00;6.53;;;6.13;;
16862;SDS011;52193;48.216;-1.698;2023-10-09T00:52:36;6.40;;;5.90;;
16862;SDS011;52193;48.216;-1.698;2023-10-09T00:55:08;6.70;;;6.20;;
16862;SDS011;52193;48.216;-1.698;2023-10-09T00:57:41;6.35;;;5.93;;
16862;SDS011;52193;48.216;-1.698;2023-10-09T01:00:15;6.35;;;5.85;;
16862;SDS011;52193;48.216;-1.698;2023-10-09T01:02:58;6.90;;;6.40;;
16862;SDS011;52193;48.216;-1.698;2023-10-09T01:05:43;6.05;;;5.55;;
16862;SDS011;52193;48.216;-1.698;2023-10-09T01:08:17;5.95;;;5.60;;
16862;SDS011;52193;48.216;-1.698;2023-10-09T01:10:51;6.53;;;6.05;;
16862;SDS011;52193;48.216;-1.698;2023-10-09T01:13:23;6.25;;;5.85;;
16862;SDS011;52193;48.216;-1.698;2023-10-09T01:16:04;5.90;;;5.57;;
16862;SDS011;52193;48.216;-1.698;2023-10-09T01:18:32;6.38;;;5.88;;
16862;SDS011;52193;48.216;-1.698;2023-10-09T01:21:03;6.45;;;6.05;;
16862;SDS011;52193;48.216;-1.698;2023-10-09T01:23:32;7.10;;;6.60;;
16862;SDS011;52193;48.216;-1.698;2023-10-09T01:25:58;6.85;;;6.35;;
16862;SDS011;52193;48.216;-1.698;2023-10-09T01:28:25;6.90;;;6.30;;
16862;SDS011;52193;48.216;-1.698;2023-10-09T01:30:54;6.72;;;6.32;;
16862;SDS011;52193;48.216;-1.698;2023-10-09T01:33:20;6.50;;;6.00;;
16862;SDS011;52193;48.216;-1.698;2023-10-09T01:35:49;6.25;;;5.70;;
16862;SDS011;52193;48.216;-1.698;2023-10-09T01:38:21;6.60;;;6.00;;
16862;SDS011;52193;48.216;-1.698;2023-10-09T01:40:58;6.78;;;6.10;;
16862;SDS011;52193;48.216;-1.698;2023-10-09T01:43:32;6.50;;;6.10;;
16862;SDS011;52193;48.216;-1.698;2023-10-09T01:46:00;6.45;;;6.05;;
16862;SDS011;52193;48.216;-1.698;2023-10-09T01:48:29;5.85;;;5.55;;
16862;SDS011;52193;48.216;-1.698;2023-10-09T01:51:01;6.57;;;6.07;;
16862;SDS011;52193;48.216;-1.698;2023-10-09T01:53:31;6.30;;;5.90;;
16862;SDS011;52193;48.216;-1.698;2023-10-09T01:56:09;6.40;;;5.93;;
16862;SDS011;52193;48.216;-1.698;2023-10-09T01:58:40;6.43;;;5.93;;
16862;SDS011;52193;48.216;-1.698;2023-10-09T02:01:10;6.53;;;6.13;;
16862;SDS011;52193;48.216;-1.698;2023-10-09T02:03:37;6.28;;;5.78;;
16862;SDS011;52193;48.216;-1.698;2023-10-09T02:06:07;6.35;;;6.05;;
16862;SDS011;52193;48.216;-1.698;2023-10-09T02:08:51;6.68;;;6.28;;
16862;SDS011;52193;48.216;-1.698;2023-10-09T02:11:20;7.00;;;6.50;;
16862;SDS011;52193;48.216;-1.698;2023-10-09T02:14:01;6.55;;;6.15;;
16862;SDS011;52193;48.216;-1.698;2023-10-09T02:16:40;7.13;;;6.53;;
16862;SDS011;52193;48.216;-1.698;2023-10-09T02:19:08;6.68;;;6.28;;
16862;SDS011;52193;48.216;-1.698;2023-10-09T02:21:54;6.55;;;6.15;;
16862;SDS011;52193;48.216;-1.698;2023-10-09T02:24:22;6.78;;;6.25;;
16862;SDS011;52193;48.216;-1.698;2023-10-09T02:27:09;6.57;;;6.18;;
16862;SDS011;52193;48.216;-1.698;2023-10-09T02:29:40;6.60;;;6.20;;
16862;SDS011;52193;48.216;-1.698;2023-10-09T02:32:07;6.72;;;6.25;;
16862;SDS011;52193;48.216;-1.698;2023-10-09T02:34:50;6.82;;;6.35;;
16862;SDS011;52193;48.216;-1.698;2023-10-09T02:37:19;6.50;;;6.10;;
16862;SDS011;52193;48.216;-1.698;2023-10-09T02:39:48;6.28;;;5.80;;
16862;SDS011;52193;48.216;-1.698;2023-10-09T02:42:19;6.70;;;6.30;;
16862;SDS011;52193;48.216;-1.698;2023-10-09T02:44:48;7.03;;;6.50;;
16862;SDS011;52193;48.216;-1.698;2023-10-09T02:47:16;6.40;;;6.00;;
16862;SDS011;52193;48.216;-1.698;2023-10-09T02:49:46;6.88;;;6.47;;
16862;SDS011;52193;48.216;-1.698;2023-10-09T02:52:16;6.07;;;5.75;;
16862;SDS011;52193;48.216;-1.698;2023-10-09T02:54:49;8.95;;;7.00;;
16862;SDS011;52193;48.216;-1.698;2023-10-09T02:57:26;6.68;;;6.28;;
16862;SDS011;52193;48.216;-1.698;2023-10-09T03:00:01;6.93;;;6.53;;
16862;SDS011;52193;48.216;-1.698;2023-10-09T03:02:33;6.93;;;6.47;;
16862;SDS011;52193;48.216;-1.698;2023-10-09T03:05:05;6.78;;;6.38;;
16862;SDS011;52193;48.216;-1.698;2023-10-09T03:07:37;7.07;;;6.57;;
16862;SDS011;52193;48.216;-1.698;2023-10-09T03:10:05;6.82;;;6.30;;
16862;SDS011;52193;48.216;-1.698;2023-10-09T03:12:35;6.78;;;6.32;;
16862;SDS011;52193;48.216;-1.698;2023-10-09T03:15:04;6.78;;;6.38;;
16862;SDS011;52193;48.216;-1.698;2023-10-09T03:17:34;6.53;;;6.10;;
16862;SDS011;52193;48.216;-1.698;2023-10-09T03:20:02;6.57;;;6.18;;
16862;SDS011;52193;48.216;-1.698;2023-10-09T03:22:37;6.65;;;6.25;;
16862;SDS011;52193;48.216;-1.698;2023-10-09T03:25:04;6.88;;;6.47;;
16862;SDS011;52193;48.216;-1.698;2023-10-09T03:27:37;7.10;;;6.60;;
16862;SDS011;52193;48.216;-1.698;2023-10-09T03:30:10;7.07;;;6.57;;
16862;SDS011;52193;48.216;-1.698;2023-10-09T03:32:42;7.30;;;6.82;;
16862;SDS011;52193;48.216;-1.698;2023-10-09T03:35:16;7.32;;;6.70;;
16862;SDS011;52193;48.216;-1.698;2023-10-09T03:37:50;7.15;;;6.70;;
16862;SDS011;52193;48.216;-1.698;2023-10-09T03:40:22;8.20;;;7.25;;
16862;SDS011;52193;48.216;-1.698;2023-10-09T03:42:51;7.40;;;6.90;;
16862;SDS011;52193;48.216;-1.698;2023-10-09T03:45:19;7.13;;;6.55;;
16862;SDS011;52193;48.216;-1.698;2023-10-09T03:47:53;6.97;;;6.47;;
16862;SDS011;52193;48.216;-1.698;2023-10-09T03:50:27;6.70;;;6.30;;
16862;SDS011;52193;48.216;-1.698;2023-10-09T03:53:01;7.20;;;6.80;;
16862;SDS011;52193;48.216;-1.698;2023-10-09T03:55:31;7.38;;;6.88;;
16862;SDS011;52193;48.216;-1.698;2023-10-09T03:58:00;7.60;;;7.10;;
16862;SDS011;52193;48.216;-1.698;2023-10-09T04:00:28;7.57;;;7.03;;
16862;SDS011;52193;48.216;-1.698;2023-10-09T04:02:56;7.20;;;6.70;;
16862;SDS011;52193;48.216;-1.698;2023-10-09T04:05:24;7.00;;;6.50;;
16862;SDS011;52193;48.216;-1.698;2023-10-09T04:07:51;7.18;;;6.78;;
16862;SDS011;52193;48.216;-1.698;2023-10-09T04:10:19;7.00;;;6.60;;
16862;SDS011;52193;48.216;-1.698;2023-10-09T04:13:04;7.07;;;6.60;;
16862;SDS011;52193;48.216;-1.698;2023-10-09T04:15:37;7.38;;;6.88;;
16862;SDS011;52193;48.216;-1.698;2023-10-09T04:18:07;6.90;;;6.40;;
16862;SDS011;52193;48.216;-1.698;2023-10-09T04:20:40;7.13;;;6.72;;
16862;SDS011;52193;48.216;-1.698;2023-10-09T04:23:24;6.82;;;6.28;;
16862;SDS011;52193;48.216;-1.698;2023-10-09T04:26:00;6.88;;;6.40;;
16862;SDS011;52193;48.216;-1.698;2023-10-09T04:28:37;6.55;;;6.15;;
16862;SDS011;52193;48.216;-1.698;2023-10-09T04:31:07;7.18;;;6.68;;
16862;SDS011;52193;48.216;-1.698;2023-10-09T04:33:34;7.20;;;6.80;;
16862;SDS011;52193;48.216;-1.698;2023-10-09T04:36:08;7.10;;;6.50;;
16862;SDS011;52193;48.216;-1.698;2023-10-09T04:38:54;7.07;;;6.45;;
16862;SDS011;52193;48.216;-1.698;2023-10-09T04:41:56;7.68;;;6.78;;
16862;SDS011;52193;48.216;-1.698;2023-10-09T04:44:44;7.15;;;6.72;;
16862;SDS011;52193;48.216;-1.698;2023-10-09T04:47:43;8.40;;;7.00;;
16862;SDS011;52193;48.216;-1.698;2023-10-09T04:50:23;6.68;;;6.28;;
16862;SDS011;52193;48.216;-1.698;2023-10-09T04:53:12;6.65;;;6.20;;
16862;SDS011;52193;48.216;-1.698;2023-10-09T04:55:56;7.03;;;6.50;;
16862;SDS011;52193;48.216;-1.698;2023-10-09T04:58:31;6.95;;;6.55;;
16862;SDS011;52193;48.216;-1.698;2023-10-09T05:01:04;6.03;;;5.72;;
16862;SDS011;52193;48.216;-1.698;2023-10-09T05:03:39;6.60;;;6.22;;
16862;SDS011;52193;48.216;-1.698;2023-10-09T05:06:09;6.80;;;6.40;;
16862;SDS011;52193;48.216;-1.698;2023-10-09T05:08:54;7.45;;;6.85;;
16862;SDS011;52193;48.216;-1.698;2023-10-09T05:11:32;7.80;;;7.03;;
16862;SDS011;52193;48.216;-1.698;2023-10-09T05:14:18;6.80;;;6.30;;
16862;SDS011;52193;48.216;-1.698;2023-10-09T05:16:52;7.20;;;6.70;;
16862;SDS011;52193;48.216;-1.698;2023-10-09T05:19:26;6.70;;;6.20;;
16862;SDS011;52193;48.216;-1.698;2023-10-09T05:22:06;6.75;;;6.15;;
16862;SDS011;52193;48.216;-1.698;2023-10-09T05:24:54;6.25;;;5.93;;
16862;SDS011;52193;48.216;-1.698;2023-10-09T05:27:22;7.00;;;6.47;;
16862;SDS011;52193;48.216;-1.698;2023-10-09T05:30:11;7.22;;;6.63;;
16862;SDS011;52193;48.216;-1.698;2023-10-09T05:32:59;7.10;;;6.60;;
16862;SDS011;52193;48.216;-1.698;2023-10-09T05:35:44;7.60;;;7.10;;
16862;SDS011;52193;48.216;-1.698;2023-10-09T05:38:30;7.63;;;7.05;;
16862;SDS011;52193;48.216;-1.698;2023-10-09T05:41:00;7.90;;;7.25;;
16862;SDS011;52193;48.216;-1.698;2023-10-09T05:43:50;6.90;;;6.40;;
16862;SDS011;52193;48.216;-1.698;2023-10-09T05:46:36;6.72;;;6.32;;
16862;SDS011;52193;48.216;-1.698;2023-10-09T05:49:13;6.78;;;6.28;;
16862;SDS011;52193;48.216;-1.698;2023-10-09T05:51:44;6.85;;;6.32;;
16862;SDS011;52193;48.216;-1.698;2023-10-09T05:54:18;6.82;;;6.35;;
16862;SDS011;52193;48.216;-1.698;2023-10-09T05:57:05;7.72;;;7.07;;
16862;SDS011;52193;48.216;-1.698;2023-10-09T05:59:49;7.72;;;6.85;;
16862;SDS011;52193;48.216;-1.698;2023-10-09T06:02:37;7.18;;;6.60;;
16862;SDS011;52193;48.216;-1.698;2023-10-09T06:05:18;7.00;;;6.50;;
16862;SDS011;52193;48.216;-1.698;2023-10-09T06:07:59;7.18;;;6.68;;
16862;SDS011;52193;48.216;-1.698;2023-10-09T06:10:33;6.93;;;6.32;;
16862;SDS011;52193;48.216;-1.698;2023-10-09T06:13:07;7.20;;;6.57;;
16862;SDS011;52193;48.216;-1.698;2023-10-09T06:15:54;7.72;;;6.55;;
16862;SDS011;52193;48.216;-1.698;2023-10-09T06:18:47;6.95;;;6.45;;
16862;SDS011;52193;48.216;-1.698;2023-10-09T06:21:33;7.13;;;6.63;;
16862;SDS011;52193;48.216;-1.698;2023-10-09T06:24:05;7.40;;;6.93;;
16862;SDS011;52193;48.216;-1.698;2023-10-09T06:26:40;9.23;;;7.20;;
16862;SDS011;52193;48.216;-1.698;2023-10-09T06:29:16;7.78;;;6.78;;
16862;SDS011;52193;48.216;-1.698;2023-10-09T06:31:59;7.90;;;7.22;;
16862;SDS011;52193;48.216;-1.698;2023-10-09T06:34:43;8.27;;;7.63;;
16862;SDS011;52193;48.216;-1.698;2023-10-09T06:37:11;8.27;;;7.68;;
16862;SDS011;52193;48.216;-1.698;2023-10-09T06:39:44;9.77;;;8.25;;
16862;SDS011;52193;48.216;-1.698;2023-10-09T06:42:31;8.43;;;7.80;;
16862;SDS011;52193;48.216;-1.698;2023-10-09T06:45:09;8.48;;;7.65;;
16862;SDS011;52193;48.216;-1.698;2023-10-09T06:47:41;8.50;;;7.80;;
16862;SDS011;52193;48.216;-1.698;2023-10-09T06:50:19;9.68;;;7.35;;
16862;SDS011;52193;48.216;-1.698;2023-10-09T06:53:12;7.80;;;7.13;;
16862;SDS011;52193;48.216;-1.698;2023-10-09T06:55:44;8.07;;;7.50;;
16862;SDS011;52193;48.216;-1.698;2023-10-09T06:58:16;7.97;;;7.28;;
16862;SDS011;52193;48.216;-1.698;2023-10-09T07:00:48;8.32;;;7.60;;
16862;SDS011;52193;48.216;-1.698;2023-10-09T07:03:26;9.48;;;8.40;;
16862;SDS011;52193;48.216;-1.698;2023-10-09T07:06:03;8.68;;;7.82;;
16862;SDS011;52193;48.216;-1.698;2023-10-09T07:08:35;8.70;;;8.02;;
16862;SDS011;52193;48.216;-1.698;2023-10-09T07:11:02;9.25;;;8.30;;
16862;SDS011;52193;48.216;-1.698;2023-10-09T07:13:43;8.32;;;7.72;;
16862;SDS011;52193;48.216;-1.698;2023-10-09T07:16:19;9.15;;;8.07;;
16862;SDS011;52193;48.216;-1.698;2023-10-09T07:19:03;8.75;;;7.90;;
16862;SDS011;52193;48.216;-1.698;2023-10-09T07:21:51;8.25;;;7.50;;
16862;SDS011;52193;48.216;-1.698;2023-10-09T07:24:19;8.43;;;7.60;;
16862;SDS011;52193;48.216;-1.698;2023-10-09T07:26:50;8.32;;;7.55;;
16862;SDS011;52193;48.216;-1.698;2023-10-09T07:29:20;8.90;;;8.02;;
16862;SDS011;52193;48.216;-1.698;2023-10-09T07:31:48;9.60;;;8.77;;
16862;SDS011;52193;48.216;-1.698;2023-10-09T07:34:22;12.05;;;10.55;;
16862;SDS011;52193;48.216;-1.698;2023-10-09T07:37:19;10.93;;;9.93;;
16862;SDS011;52193;48.216;-1.698;2023-10-09T07:39:48;10.88;;;9.90;;
16862;SDS011;52193;48.216;-1.698;2023-10-09T07:42:22;10.52;;;9.77;;
16862;SDS011;52193;48.216;-1.698;2023-10-09T07:44:58;10.52;;;9.82;;
16862;SDS011;52193;48.216;-1.698;2023-10-09T07:47:37;11.02;;;9.93;;
16862;SDS011;52193;48.216;-1.698;2023-10-09T07:50:26;9.70;;;9.00;;
16862;SDS011;52193;48.216;-1.698;2023-10-09T07:53:04;9.75;;;8.95;;
16862;SDS011;52193;48.216;-1.698;2023-10-09T07:55:51;9.45;;;8.85;;
16862;SDS011;52193;48.216;-1.698;2023-10-09T07:58:23;9.57;;;8.88;;
16862;SDS011;52193;48.216;-1.698;2023-10-09T08:00:51;10.18;;;9.38;;
16862;SDS011;52193;48.216;-1.698;2023-10-09T08:03:38;10.75;;;9.95;;
16862;SDS011;52193;48.216;-1.698;2023-10-09T08:06:06;10.00;;;9.25;;
16862;SDS011;52193;48.216;-1.698;2023-10-09T08:08:50;10.45;;;9.75;;
16862;SDS011;52193;48.216;-1.698;2023-10-09T08:11:43;11.20;;;10.35;;
16862;SDS011;52193;48.216;-1.698;2023-10-09T08:14:39;12.27;;;11.48;;
16862;SDS011;52193;48.216;-1.698;2023-10-09T08:17:13;12.18;;;11.38;;
16862;SDS011;52193;48.216;-1.698;2023-10-09T08:19:46;13.48;;;12.15;;
16862;SDS011;52193;48.216;-1.698;2023-10-09T08:22:26;13.38;;;12.40;;
16862;SDS011;52193;48.216;-1.698;2023-10-09T08:25:16;13.57;;;12.35;;
16862;SDS011;52193;48.216;-1.698;2023-10-09T08:27:52;14.55;;;13.40;;
16862;SDS011;52193;48.216;-1.698;2023-10-09T08:30:21;14.43;;;13.43;;
16862;SDS011;52193;48.216;-1.698;2023-10-09T08:33:05;15.20;;;13.73;;
16862;SDS011;52193;48.216;-1.698;2023-10-09T08:35:46;14.25;;;13.30;;
16862;SDS011;52193;48.216;-1.698;2023-10-09T08:38:14;15.15;;;13.75;;
16862;SDS011;52193;48.216;-1.698;2023-10-09T08:40:43;15.07;;;13.77;;
16862;SDS011;52193;48.216;-1.698;2023-10-09T08:43:13;15.13;;;13.93;;
16862;SDS011;52193;48.216;-1.698;2023-10-09T08:45:44;14.70;;;13.35;;
16862;SDS011;52193;48.216;-1.698;2023-10-09T08:48:12;14.60;;;13.55;;
16862;SDS011;52193;48.216;-1.698;2023-10-09T08:50:41;14.85;;;13.70;;
16862;SDS011;52193;48.216;-1.698;2023-10-09T08:53:09;13.82;;;12.88;;
16862;SDS011;52193;48.216;-1.698;2023-10-09T08:55:37;14.20;;;13.13;;
16862;SDS011;52193;48.216;-1.698;2023-10-09T08:58:06;17.35;;;13.18;;
16862;SDS011;52193;48.216;-1.698;2023-10-09T09:00:43;14.50;;;13.50;;
16862;SDS011;52193;48.216;-1.698;2023-10-09T09:03:11;15.07;;;13.98;;
16862;SDS011;52193;48.216;-1.698;2023-10-09T09:05:41;14.98;;;13.85;;
16862;SDS011;52193;48.216;-1.698;2023-10-09T09:08:20;15.30;;;14.35;;
16862;SDS011;52193;48.216;-1.698;2023-10-09T09:10:51;15.70;;;14.43;;
16862;SDS011;52193;48.216;-1.698;2023-10-09T09:13:26;15.48;;;14.32;;
16862;SDS011;52193;48.216;-1.698;2023-10-09T09:15:56;16.10;;;15.00;;
16862;SDS011;52193;48.216;-1.698;2023-10-09T09:18:24;16.95;;;15.75;;
16862;SDS011;52193;48.216;-1.698;2023-10-09T09:20:57;16.80;;;15.60;;
16862;SDS011;52193;48.216;-1.698;2023-10-09T09:23:24;16.52;;;15.30;;
16862;SDS011;52193;48.216;-1.698;2023-10-09T09:25:52;17.58;;;16.40;;
16862;SDS011;52193;48.216;-1.698;2023-10-09T09:28:24;17.40;;;16.38;;
16862;SDS011;52193;48.216;-1.698;2023-10-09T09:31:06;16.98;;;16.08;;
16862;SDS011;52193;48.216;-1.698;2023-10-09T09:33:38;17.38;;;16.15;;
16862;SDS011;52193;48.216;-1.698;2023-10-09T09:36:06;17.60;;;16.40;;
16862;SDS011;52193;48.216;-1.698;2023-10-09T09:38:36;17.77;;;16.63;;
16862;SDS011;52193;48.216;-1.698;2023-10-09T09:41:13;17.00;;;15.90;;
16862;SDS011;52193;48.216;-1.698;2023-10-09T09:43:51;16.17;;;14.98;;
16862;SDS011;52193;48.216;-1.698;2023-10-09T09:46:21;17.90;;;16.50;;
16862;SDS011;52193;48.216;-1.698;2023-10-09T09:48:57;18.58;;;16.85;;
16862;SDS011;52193;48.216;-1.698;2023-10-09T09:51:29;18.75;;;16.92;;
16862;SDS011;52193;48.216;-1.698;2023-10-09T09:53:56;16.77;;;15.48;;
16862;SDS011;52193;48.216;-1.698;2023-10-09T09:56:24;17.25;;;15.68;;
16862;SDS011;52193;48.216;-1.698;2023-10-09T09:58:53;15.77;;;14.57;;
16862;SDS011;52193;48.216;-1.698;2023-10-09T10:01:24;17.00;;;15.57;;
16862;SDS011;52193;48.216;-1.698;2023-10-09T10:03:54;16.20;;;15.00;;
16862;SDS011;52193;48.216;-1.698;2023-10-09T10:06:26;16.48;;;14.98;;
16862;SDS011;52193;48.216;-1.698;2023-10-09T10:08:57;15.65;;;14.73;;
16862;SDS011;52193;48.216;-1.698;2023-10-09T10:11:40;14.77;;;13.70;;
16862;SDS011;52193;48.216;-1.698;2023-10-09T10:14:10;13.60;;;12.70;;
16862;SDS011;52193;48.216;-1.698;2023-10-09T10:17:00;13.60;;;12.65;;
16862;SDS011;52193;48.216;-1.698;2023-10-09T10:22:26;10.90;;;10.38;;
16862;SDS011;52193;48.216;-1.698;2023-10-09T10:24:55;10.00;;;9.32;;
16862;SDS011;52193;48.216;-1.698;2023-10-09T10:27:23;9.55;;;8.70;;
16862;SDS011;52193;48.216;-1.698;2023-10-09T10:33:03;10.02;;;9.18;;
16862;SDS011;52193;48.216;-1.698;2023-10-09T10:35:40;8.48;;;7.90;;
16862;SDS011;52193;48.216;-1.698;2023-10-09T10:38:27;9.95;;;9.35;;
16862;SDS011;52193;48.216;-1.698;2023-10-09T10:41:12;10.68;;;9.98;;
16862;SDS011;52193;48.216;-1.698;2023-10-09T10:43:41;9.82;;;9.23;;
16862;SDS011;52193;48.216;-1.698;2023-10-09T10:46:21;9.93;;;9.32;;
16862;SDS011;52193;48.216;-1.698;2023-10-09T10:49:03;9.88;;;9.18;;
16862;SDS011;52193;48.216;-1.698;2023-10-09T10:51:40;10.05;;;9.27;;
16862;SDS011;52193;48.216;-1.698;2023-10-09T10:54:19;9.93;;;9.18;;
16862;SDS011;52193;48.216;-1.698;2023-10-09T10:57:12;9.00;;;8.32;;
16862;SDS011;52193;48.216;-1.698;2023-10-09T10:59:44;8.50;;;7.80;;
16862;SDS011;52193;48.216;-1.698;2023-10-09T11:02:12;8.05;;;7.55;;
16862;SDS011;52193;48.216;-1.698;2023-10-09T11:04:53;8.10;;;7.60;;
16862;SDS011;52193;48.216;-1.698;2023-10-09T11:07:39;8.55;;;7.47;;
16862;SDS011;52193;48.216;-1.698;2023-10-09T11:10:07;7.70;;;7.10;;
16862;SDS011;52193;48.216;-1.698;2023-10-09T11:12:42;7.40;;;6.90;;
16862;SDS011;52193;48.216;-1.698;2023-10-09T11:15:31;6.97;;;6.47;;
16862;SDS011;52193;48.216;-1.698;2023-10-09T11:18:11;6.95;;;6.55;;
16862;SDS011;52193;48.216;-1.698;2023-10-09T11:20:45;8.45;;;7.95;;
16862;SDS011;52193;48.216;-1.698;2023-10-09T11:23:21;7.78;;;7.07;;
16862;SDS011;52193;48.216;-1.698;2023-10-09T11:26:02;7.32;;;6.88;;
16862;SDS011;52193;48.216;-1.698;2023-10-09T11:28:46;6.85;;;6.45;;
16862;SDS011;52193;48.216;-1.698;2023-10-09T11:31:38;6.60;;;6.10;;
16862;SDS011;52193;48.216;-1.698;2023-10-09T11:34:08;8.23;;;7.63;;
16862;SDS011;52193;48.216;-1.698;2023-10-09T11:36:54;7.50;;;7.00;;
16862;SDS011;52193;48.216;-1.698;2023-10-09T11:39:25;7.97;;;7.38;;
16862;SDS011;52193;48.216;-1.698;2023-10-09T11:42:04;8.70;;;8.20;;
16862;SDS011;52193;48.216;-1.698;2023-10-09T11:44:35;7.10;;;6.50;;
16862;SDS011;52193;48.216;-1.698;2023-10-09T11:47:04;6.88;;;6.45;;
16862;SDS011;52193;48.216;-1.698;2023-10-09T11:49:49;8.77;;;8.18;;
16862;SDS011;52193;48.216;-1.698;2023-10-09T11:52:35;8.80;;;8.20;;
16862;SDS011;52193;48.216;-1.698;2023-10-09T11:55:03;7.82;;;7.10;;
16862;SDS011;52193;48.216;-1.698;2023-10-09T11:57:33;8.88;;;7.22;;
16862;SDS011;52193;48.216;-1.698;2023-10-09T12:00:00;8.13;;;7.30;;
16862;SDS011;52193;48.216;-1.698;2023-10-09T12:02:36;8.05;;;7.35;;
16862;SDS011;52193;48.216;-1.698;2023-10-09T12:05:10;7.93;;;7.32;;
16862;SDS011;52193;48.216;-1.698;2023-10-09T12:07:42;8.05;;;7.43;;
16862;SDS011;52193;48.216;-1.698;2023-10-09T12:10:10;8.10;;;7.30;;
16862;SDS011;52193;48.216;-1.698;2023-10-09T12:12:38;8.63;;;7.93;;
16862;SDS011;52193;48.216;-1.698;2023-10-09T12:15:11;10.35;;;8.43;;
16862;SDS011;52193;48.216;-1.698;2023-10-09T12:17:42;9.27;;;8.48;;
16862;SDS011;52193;48.216;-1.698;2023-10-09T12:20:13;8.45;;;7.95;;
16862;SDS011;52193;48.216;-1.698;2023-10-09T12:22:55;8.63;;;8.02;;
16862;SDS011;52193;48.216;-1.698;2023-10-09T12:25:23;10.65;;;9.15;;
16862;SDS011;52193;48.216;-1.698;2023-10-09T12:27:51;9.25;;;8.25;;
16862;SDS011;52193;48.216;-1.698;2023-10-09T12:30:20;10.02;;;9.00;;
16862;SDS011;52193;48.216;-1.698;2023-10-09T12:32:52;8.80;;;7.95;;
16862;SDS011;52193;48.216;-1.698;2023-10-09T12:35:21;11.52;;;8.48;;
16862;SDS011;52193;48.216;-1.698;2023-10-09T12:37:48;9.98;;;9.27;;
16862;SDS011;52193;48.216;-1.698;2023-10-09T12:40:16;8.55;;;7.95;;
16862;SDS011;52193;48.216;-1.698;2023-10-09T12:42:49;9.88;;;7.93;;
16862;SDS011;52193;48.216;-1.698;2023-10-09T12:45:17;8.27;;;7.47;;
16862;SDS011;52193;48.216;-1.698;2023-10-09T12:47:51;8.50;;;7.70;;
16862;SDS011;52193;48.216;-1.698;2023-10-09T12:50:18;9.13;;;8.32;;
16862;SDS011;52193;48.216;-1.698;2023-10-09T12:52:54;10.13;;;9.32;;
16862;SDS011;52193;48.216;-1.698;2023-10-09T12:55:22;8.20;;;7.65;;
16862;SDS011;52193;48.216;-1.698;2023-10-09T12:57:57;7.72;;;7.10;;
16862;SDS011;52193;48.216;-1.698;2023-10-09T13:00:29;8.98;;;8.10;;
16862;SDS011;52193;48.216;-1.698;2023-10-09T13:02:57;8.40;;;7.50;;
16862;SDS011;52193;48.216;-1.698;2023-10-09T13:05:26;8.88;;;8.18;;
16862;SDS011;52193;48.216;-1.698;2023-10-09T13:07:54;8.30;;;7.70;;
16862;SDS011;52193;48.216;-1.698;2023-10-09T13:10:23;8.65;;;7.65;;
16862;SDS011;52193;48.216;-1.698;2023-10-09T13:12:51;8.63;;;7.88;;
16862;SDS011;52193;48.216;-1.698;2023-10-09T13:15:21;9.18;;;8.48;;
16862;SDS011;52193;48.216;-1.698;2023-10-09T13:17:48;9.68;;;7.65;;
16862;SDS011;52193;48.216;-1.698;2023-10-09T13:20:18;8.30;;;7.50;;
16862;SDS011;52193;48.216;-1.698;2023-10-09T13:22:46;9.52;;;8.45;;
16862;SDS011;52193;48.216;-1.698;2023-10-09T13:25:15;9.30;;;8.43;;
16862;SDS011;52193;48.216;-1.698;2023-10-09T13:27:49;9.40;;;8.35;;
16862;SDS011;52193;48.216;-1.698;2023-10-09T13:30:17;8.32;;;7.30;;
16862;SDS011;52193;48.216;-1.698;2023-10-09T13:32:48;8.00;;;7.40;;
16862;SDS011;52193;48.216;-1.698;2023-10-09T13:35:16;8.20;;;7.65;;
16862;SDS011;52193;48.216;-1.698;2023-10-09T13:37:44;8.10;;;7.30;;
16862;SDS011;52193;48.216;-1.698;2023-10-09T13:40:21;8.40;;;7.60;;
16862;SDS011;52193;48.216;-1.698;2023-10-09T13:42:53;9.00;;;7.70;;
16862;SDS011;52193;48.216;-1.698;2023-10-09T13:45:24;9.05;;;8.00;;
16862;SDS011;52193;48.216;-1.698;2023-10-09T13:47:53;9.10;;;8.40;;
16862;SDS011;52193;48.216;-1.698;2023-10-09T13:50:23;8.60;;;7.80;;
16862;SDS011;52193;48.216;-1.698;2023-10-09T13:52:54;8.93;;;8.23;;
16862;SDS011;52193;48.216;-1.698;2023-10-09T13:55:23;8.40;;;7.60;;
16862;SDS011;52193;48.216;-1.698;2023-10-09T13:57:56;7.95;;;7.35;;
16862;SDS011;52193;48.216;-1.698;2023-10-09T14:00:24;8.07;;;7.47;;
16862;SDS011;52193;48.216;-1.698;2023-10-09T14:02:59;8.40;;;7.70;;
16862;SDS011;52193;48.216;-1.698;2023-10-09T14:05:36;8.07;;;7.38;;
16862;SDS011;52193;48.216;-1.698;2023-10-09T14:08:16;8.73;;;7.00;;
16862;SDS011;52193;48.216;-1.698;2023-10-09T14:10:48;7.90;;;7.30;;
16862;SDS011;52193;48.216;-1.698;2023-10-09T14:13:15;7.78;;;7.10;;
16862;SDS011;52193;48.216;-1.698;2023-10-09T14:15:51;8.32;;;7.72;;
16862;SDS011;52193;48.216;-1.698;2023-10-09T14:18:19;8.05;;;7.35;;
16862;SDS011;52193;48.216;-1.698;2023-10-09T14:20:47;8.15;;;7.55;;
16862;SDS011;52193;48.216;-1.698;2023-10-09T14:23:15;8.48;;;7.50;;
16862;SDS011;52193;48.216;-1.698;2023-10-09T14:25:46;8.10;;;7.32;;
16862;SDS011;52193;48.216;-1.698;2023-10-09T14:28:16;7.97;;;7.35;;
16862;SDS011;52193;48.216;-1.698;2023-10-09T14:30:44;8.85;;;7.40;;
16862;SDS011;52193;48.216;-1.698;2023-10-09T14:33:14;7.43;;;6.93;;
16862;SDS011;52193;48.216;-1.698;2023-10-09T14:35:47;8.90;;;7.60;;
16862;SDS011;52193;48.216;-1.698;2023-10-09T14:38:17;8.30;;;7.47;;
16862;SDS011;52193;48.216;-1.698;2023-10-09T14:40:51;7.85;;;7.32;;
16862;SDS011;52193;48.216;-1.698;2023-10-09T14:43:24;8.63;;;7.47;;
16862;SDS011;52193;48.216;-1.698;2023-10-09T14:45:53;8.30;;;7.60;;
16862;SDS011;52193;48.216;-1.698;2023-10-09T14:48:21;8.68;;;7.82;;
16862;SDS011;52193;48.216;-1.698;2023-10-09T14:50:51;8.35;;;7.50;;
16862;SDS011;52193;48.216;-1.698;2023-10-09T14:53:19;8.18;;;7.47;;
16862;SDS011;52193;48.216;-1.698;2023-10-09T14:55:46;8.30;;;7.40;;
16862;SDS011;52193;48.216;-1.698;2023-10-09T14:58:19;9.27;;;6.90;;
16862;SDS011;52193;48.216;-1.698;2023-10-09T15:00:51;11.25;;;7.07;;
16862;SDS011;52193;48.216;-1.698;2023-10-09T15:03:19;8.48;;;7.85;;
16862;SDS011;52193;48.216;-1.698;2023-10-09T15:05:47;8.38;;;7.50;;
16862;SDS011;52193;48.216;-1.698;2023-10-09T15:08:14;9.48;;;7.25;;
16862;SDS011;52193;48.216;-1.698;2023-10-09T15:10:45;9.25;;;7.45;;
16862;SDS011;52193;48.216;-1.698;2023-10-09T15:13:13;9.23;;;7.95;;
16862;SDS011;52193;48.216;-1.698;2023-10-09T15:15:41;7.15;;;6.47;;
16862;SDS011;52193;48.216;-1.698;2023-10-09T15:18:10;8.70;;;6.88;;